createdAt,value
2018-01-23T00:00:19.819Z,42.6
2018-01-23T00:01:21.140Z,42.7
2018-01-23T00:02:23.035Z,42.8
2018-01-23T00:03:24.655Z,42.6
2018-01-23T00:04:26.276Z,42.7
2018-01-23T00:05:27.908Z,42.7
2018-01-23T00:06:29.804Z,43
2018-01-23T00:07:31.425Z,42.7
2018-01-23T00:08:33.319Z,42.7
2018-01-23T00:09:34.937Z,42.8
2018-01-23T00:10:36.835Z,42.6
2018-01-23T00:11:37.880Z,42.7
2018-01-23T00:12:39.501Z,42.7
2018-01-23T00:13:40.822Z,42.1
2018-01-23T00:14:42.454Z,42.7
2018-01-23T00:15:43.786Z,42.6
2018-01-23T00:16:45.706Z,42.6
2018-01-23T00:17:47.637Z,42.7
2018-01-23T00:18:48.958Z,42.7
2018-01-23T00:19:50.854Z,42.6
2018-01-23T00:20:52.451Z,42.8
2018-01-23T00:21:54.346Z,43
2018-01-23T00:22:55.943Z,43
2018-01-23T00:23:57.559Z,42.7
2018-01-23T00:24:59.455Z,42.7
2018-01-23T00:26:00.795Z,42.7
2018-01-23T00:27:02.389Z,42.6
2018-01-23T00:28:03.431Z,42.7
2018-01-23T00:29:05.081Z,42.6
2018-01-23T00:30:06.701Z,42.8
2018-01-23T00:31:08.039Z,42.7
2018-01-23T00:32:09.358Z,42.6
2018-01-23T00:33:10.978Z,42.6
2018-01-23T00:34:12.574Z,42.6
2018-01-23T00:35:14.170Z,42.7
2018-01-23T00:36:15.786Z,42.7
2018-01-23T00:37:17.388Z,42.7
2018-01-23T00:38:19.007Z,42.9
2018-01-23T00:39:20.903Z,42.7
2018-01-23T00:40:22.799Z,42.8
2018-01-23T00:41:24.692Z,42.6
2018-01-23T00:42:26.313Z,42.6
2018-01-23T00:43:27.932Z,43
2018-01-23T00:44:29.553Z,42.7
2018-01-23T00:45:31.182Z,42.7
2018-01-23T00:46:32.782Z,42.9
2018-01-23T00:47:34.401Z,42.6
2018-01-23T00:48:36.020Z,42.7
2018-01-23T00:49:37.639Z,42.6
2018-01-23T00:50:39.532Z,42.6
2018-01-23T00:51:40.848Z,42.6
2018-01-23T00:52:42.742Z,42.7
2018-01-23T00:53:44.359Z,42.6
2018-01-23T00:54:45.977Z,42.7
2018-01-23T00:55:47.872Z,42.7
2018-01-23T00:56:49.489Z,42.8
2018-01-23T00:57:51.382Z,42.7
2018-01-23T00:58:53.277Z,42.7
2018-01-23T00:59:55.173Z,42.7
2018-01-23T01:00:56.771Z,43
2018-01-23T01:01:58.090Z,42.8
2018-01-23T01:02:59.708Z,42.8
2018-01-23T01:04:01.325Z,42.3
2018-01-23T01:05:02.366Z,42.7
2018-01-23T01:06:04.260Z,43
2018-01-23T01:07:05.583Z,42.9
2018-01-23T01:08:07.475Z,42.7
2018-01-23T01:09:08.819Z,42.7
2018-01-23T01:10:10.714Z,42.8
2018-01-23T01:11:12.610Z,42.7
2018-01-23T01:12:13.927Z,42.7
2018-01-23T01:13:15.526Z,42.7
2018-01-23T01:14:16.865Z,42.7
2018-01-23T01:15:18.758Z,43
2018-01-23T01:16:19.799Z,42.6
2018-01-23T01:17:21.417Z,42.6
2018-01-23T01:18:23.313Z,42.6
2018-01-23T01:19:24.629Z,42.7
2018-01-23T01:20:25.972Z,42.7
2018-01-23T01:21:27.869Z,42.9
2018-01-23T01:22:29.185Z,42.6
2018-01-23T01:23:31.081Z,42.7
2018-01-23T01:24:32.978Z,42.7
2018-01-23T01:25:34.875Z,42.7
2018-01-23T01:26:35.915Z,42.7
2018-01-23T01:27:37.274Z,42.6
2018-01-23T01:28:38.589Z,42.6
2018-01-23T01:29:40.208Z,43
2018-01-23T01:30:41.549Z,42.8
2018-01-23T01:31:43.164Z,42.6
2018-01-23T01:32:45.064Z,43
2018-01-23T01:33:46.678Z,42.7
2018-01-23T01:34:47.435Z,42.6
2018-01-23T01:35:48.757Z,42.6
2018-01-23T01:36:49.817Z,42.7
2018-01-23T01:37:51.140Z,42.6
2018-01-23T01:38:52.454Z,43
2018-01-23T01:39:53.772Z,42.7
2018-01-23T01:40:54.813Z,42.8
2018-01-23T01:41:56.442Z,42.8
2018-01-23T01:42:58.342Z,42.6
2018-01-23T01:43:59.663Z,42.7
2018-01-23T01:45:01.002Z,42.7
2018-01-23T01:46:01.766Z,42.6
2018-01-23T01:47:02.804Z,43
2018-01-23T01:48:04.420Z,42.6
2018-01-23T01:49:05.736Z,42.6
2018-01-23T01:50:07.054Z,42.7
2018-01-23T01:51:07.817Z,42.9
2018-01-23T01:52:09.472Z,42.7
2018-01-23T01:53:10.812Z,42.6
2018-01-23T01:54:11.581Z,42.7
2018-01-23T01:55:13.196Z,42.8
2018-01-23T01:56:15.091Z,42.9
2018-01-23T01:57:16.715Z,42.7
2018-01-23T01:58:18.606Z,42.9
2018-01-23T01:59:20.223Z,42.1
2018-01-23T02:00:22.118Z,42.7
2018-01-23T02:01:23.456Z,42.8
2018-01-23T02:02:25.074Z,42.6
2018-01-23T02:03:26.691Z,42.7
2018-01-23T02:04:28.030Z,42.7
2018-01-23T02:05:29.649Z,42.7
2018-01-23T02:06:31.252Z,42.6
2018-01-23T02:07:32.869Z,42.7
2018-01-23T02:08:34.463Z,42.8
2018-01-23T02:09:35.527Z,42.7
2018-01-23T02:10:37.124Z,43
2018-01-23T02:11:39.018Z,42.7
2018-01-23T02:12:40.634Z,42.6
2018-01-23T02:13:42.251Z,42.9
2018-01-23T02:14:43.848Z,42.7
2018-01-23T02:15:45.467Z,42.7
2018-01-23T02:16:47.360Z,42.7
2018-01-23T02:17:48.399Z,42.8
2018-01-23T02:18:49.740Z,42.9
2018-01-23T02:19:51.078Z,42.6
2018-01-23T02:20:52.697Z,42.6
2018-01-23T02:21:54.317Z,42.6
2018-01-23T02:22:55.655Z,42.6
2018-01-23T02:23:57.273Z,42.7
2018-01-23T02:24:58.888Z,42.7
2018-01-23T02:25:59.926Z,42.6
2018-01-23T02:27:01.545Z,42.6
2018-01-23T02:28:02.589Z,42.6
2018-01-23T02:29:03.930Z,42.7
2018-01-23T02:30:05.571Z,43
2018-01-23T02:31:07.187Z,42.7
2018-01-23T02:32:09.081Z,42.6
2018-01-23T02:33:10.402Z,42.8
2018-01-23T02:34:12.021Z,42.7
2018-01-23T02:35:13.916Z,42.6
2018-01-23T02:36:15.809Z,42.7
2018-01-23T02:37:17.427Z,42.7
2018-01-23T02:38:19.322Z,42.9
2018-01-23T02:39:20.660Z,43
2018-01-23T02:40:21.700Z,42.7
2018-01-23T02:41:23.316Z,42.8
2018-01-23T02:42:24.912Z,42.7
2018-01-23T02:43:26.528Z,42.7
2018-01-23T02:44:28.124Z,42.7
2018-01-23T02:45:30.026Z,42.8
2018-01-23T02:46:31.922Z,42.7
2018-01-23T02:47:33.515Z,42.7
2018-01-23T02:48:35.132Z,42.8
2018-01-23T02:49:37.028Z,42.7
2018-01-23T02:50:38.645Z,42.6
2018-01-23T02:51:39.965Z,42.7
2018-01-23T02:52:41.861Z,42.8
2018-01-23T02:53:43.461Z,42.7
2018-01-23T02:54:44.780Z,42.6
2018-01-23T02:55:46.162Z,42.6
2018-01-23T02:56:48.057Z,42.9
2018-01-23T02:57:49.379Z,43
2018-01-23T02:58:50.993Z,42.9
2018-01-23T02:59:52.886Z,42.7
2018-01-23T03:00:54.229Z,42.6
2018-01-23T03:01:55.846Z,42.9
2018-01-23T03:02:57.753Z,42.6
2018-01-23T03:03:59.065Z,42.6
2018-01-23T03:05:00.402Z,42.7
2018-01-23T03:06:02.297Z,42.8
2018-01-23T03:07:04.191Z,42.8
2018-01-23T03:08:05.840Z,42.8
2018-01-23T03:09:07.458Z,42.7
2018-01-23T03:10:08.780Z,42.8
2018-01-23T03:11:10.674Z,42.6
2018-01-23T03:12:12.569Z,42.6
2018-01-23T03:13:14.463Z,42.6
2018-01-23T03:14:15.504Z,42.6
2018-01-23T03:15:17.400Z,42.7
2018-01-23T03:16:19.294Z,42.7
2018-01-23T03:17:20.912Z,42.7
2018-01-23T03:18:22.510Z,42.6
2018-01-23T03:19:24.129Z,42.6
2018-01-23T03:20:25.469Z,42.6
2018-01-23T03:21:26.810Z,42.6
2018-01-23T03:22:28.148Z,42.8
2018-01-23T03:23:30.083Z,42.7
2018-01-23T03:24:31.420Z,42.8
2018-01-23T03:25:33.016Z,42.6
2018-01-23T03:26:34.618Z,42.7
2018-01-23T03:27:36.218Z,42.6
2018-01-23T03:28:37.557Z,42.6
2018-01-23T03:29:39.173Z,42.7
2018-01-23T03:30:40.793Z,42.7
2018-01-23T03:31:42.687Z,42.7
2018-01-23T03:32:44.582Z,42.7
2018-01-23T03:33:46.200Z,42.7
2018-01-23T03:34:48.095Z,42.6
2018-01-23T03:35:49.711Z,42.7
2018-01-23T03:36:51.037Z,42.6
2018-01-23T03:37:52.656Z,42.8
2018-01-23T03:38:54.297Z,42.6
2018-01-23T03:39:55.656Z,42.8
2018-01-23T03:40:56.980Z,42.6
2018-01-23T03:41:58.578Z,42.6
2018-01-23T03:43:00.195Z,42.6
2018-01-23T03:44:01.812Z,42.7
2018-01-23T03:45:03.445Z,42.7
2018-01-23T03:46:04.785Z,42.7
2018-01-23T03:47:05.549Z,42.6
2018-01-23T03:48:06.922Z,42.6
2018-01-23T03:49:08.240Z,42.6
2018-01-23T03:50:09.283Z,43
2018-01-23T03:51:10.909Z,42.7
2018-01-23T03:52:12.241Z,42.7
2018-01-23T03:53:13.290Z,42.7
2018-01-23T03:54:15.186Z,42.7
2018-01-23T03:55:16.526Z,42.7
2018-01-23T03:56:17.846Z,42.7
2018-01-23T03:57:19.166Z,42.7
2018-01-23T03:58:20.780Z,42.8
2018-01-23T03:59:22.121Z,42.6
2018-01-23T04:00:23.439Z,42.6
2018-01-23T04:01:25.058Z,42.6
2018-01-23T04:02:26.655Z,42.7
2018-01-23T04:03:28.255Z,42.7
2018-01-23T04:04:29.593Z,42.7
2018-01-23T04:05:31.210Z,42.9
2018-01-23T04:06:33.105Z,42.7
2018-01-23T04:07:34.998Z,42.6
2018-01-23T04:08:36.892Z,42.7
2018-01-23T04:09:38.209Z,42.7
2018-01-23T04:10:39.827Z,42.9
2018-01-23T04:11:41.722Z,42.6
2018-01-23T04:12:43.344Z,42.7
2018-01-23T04:13:44.959Z,42.8
2018-01-23T04:14:46.853Z,42.6
2018-01-23T04:15:48.193Z,42.9
2018-01-23T04:16:49.814Z,43
2018-01-23T04:17:51.446Z,43.1
2018-01-23T04:18:53.341Z,42.7
2018-01-23T04:19:54.679Z,42.6
2018-01-23T04:20:55.744Z,42.7
2018-01-23T04:21:56.810Z,42.7
2018-01-23T04:22:58.431Z,42.7
2018-01-23T04:24:00.033Z,42.1
2018-01-23T04:25:01.070Z,42.7
2018-01-23T04:26:02.412Z,42.6
2018-01-23T04:27:03.472Z,42.7
2018-01-23T04:28:05.367Z,42.7
2018-01-23T04:29:06.423Z,42.7
2018-01-23T04:30:07.741Z,42.9
2018-01-23T04:31:09.637Z,42.7
2018-01-23T04:32:10.955Z,42.7
2018-01-23T04:33:12.572Z,42.7
2018-01-23T04:34:14.190Z,42.7
2018-01-23T04:35:15.510Z,42.7
2018-01-23T04:36:17.127Z,42.7
2018-01-23T04:37:19.023Z,43
2018-01-23T04:38:20.640Z,42.6
2018-01-23T04:39:22.260Z,42.7
2018-01-23T04:40:23.858Z,42.7
2018-01-23T04:41:25.771Z,42.6
2018-01-23T04:42:26.811Z,42.7
2018-01-23T04:43:28.152Z,42.8
2018-01-23T04:44:30.048Z,42.7
2018-01-23T04:45:31.960Z,42.6
2018-01-23T04:46:33.555Z,42.6
2018-01-23T04:47:35.451Z,42.8
2018-01-23T04:48:37.048Z,42.7
2018-01-23T04:49:38.942Z,42.6
2018-01-23T04:50:40.549Z,42.8
2018-01-23T04:51:42.148Z,42.7
2018-01-23T04:52:43.764Z,42.7
2018-01-23T04:53:45.086Z,42.7
2018-01-23T04:54:46.701Z,42.7
2018-01-23T04:55:48.022Z,42.9
2018-01-23T04:56:49.952Z,42.7
2018-01-23T04:57:51.852Z,42.6
2018-01-23T04:58:53.465Z,42.7
2018-01-23T04:59:55.082Z,42.7
2018-01-23T05:00:56.976Z,42.7
2018-01-23T05:01:58.317Z,42.7
2018-01-23T05:03:00.216Z,42.9
2018-01-23T05:04:01.553Z,42.7
2018-01-23T05:05:02.893Z,42.7
2018-01-23T05:06:03.659Z,42.9
2018-01-23T05:07:05.277Z,42.7
2018-01-23T05:08:06.316Z,42.6
2018-01-23T05:09:07.659Z,42.6
2018-01-23T05:10:08.978Z,43
2018-01-23T05:11:10.595Z,42.7
2018-01-23T05:12:12.492Z,42.8
2018-01-23T05:13:14.110Z,42.9
2018-01-23T05:14:15.727Z,42.7
2018-01-23T05:15:17.046Z,42.8
2018-01-23T05:16:18.663Z,42.7
2018-01-23T05:17:19.426Z,42.6
2018-01-23T05:18:20.748Z,42.3
2018-01-23T05:19:22.087Z,42.4
2018-01-23T05:20:23.702Z,42.7
2018-01-23T05:21:25.332Z,42.4
2018-01-23T05:22:26.942Z,42.5
2018-01-23T05:23:28.554Z,42.3
2018-01-23T05:24:30.453Z,42.2
2018-01-23T05:25:32.049Z,42.3
2018-01-23T05:26:33.390Z,42.2
2018-01-23T05:27:34.985Z,42.1
2018-01-23T05:28:36.881Z,42.2
2018-01-23T05:29:38.497Z,42.4
2018-01-23T05:30:40.393Z,42.2
2018-01-23T05:31:42.009Z,42.4
2018-01-23T05:32:43.625Z,42.2
2018-01-23T05:33:45.278Z,42.3
2018-01-23T05:34:47.172Z,42.4
2018-01-23T05:35:48.768Z,42.4
2018-01-23T05:36:50.438Z,42.3
2018-01-23T05:37:51.490Z,42.3
2018-01-23T05:38:53.108Z,42.4
2018-01-23T05:39:55.002Z,42.3
2018-01-23T05:40:56.923Z,42.3
2018-01-23T05:41:58.817Z,42.5
2018-01-23T05:43:00.435Z,42.4
2018-01-23T05:44:01.488Z,42.3
2018-01-23T05:45:02.849Z,42.2
2018-01-23T05:46:04.189Z,42.4
2018-01-23T05:47:05.508Z,42.4
2018-01-23T05:48:06.844Z,42.5
2018-01-23T05:49:07.887Z,42.3
2018-01-23T05:50:09.788Z,42.4
2018-01-23T05:51:10.826Z,42.4
2018-01-23T05:52:12.465Z,42.5
2018-01-23T05:53:14.357Z,42.3
2018-01-23T05:54:15.698Z,42.4
2018-01-23T05:55:17.595Z,42.3
2018-01-23T05:56:19.214Z,42.4
2018-01-23T05:57:20.813Z,42.4
2018-01-23T05:58:22.710Z,42.4
2018-01-23T05:59:24.605Z,42.3
2018-01-23T06:00:26.201Z,42.6
2018-01-23T06:01:27.824Z,42.6
2018-01-23T06:02:29.173Z,42.5
2018-01-23T06:03:30.789Z,42.3
2018-01-23T06:04:32.384Z,42.4
2018-01-23T06:05:33.706Z,42.1
2018-01-23T06:06:35.602Z,42.2
2018-01-23T06:07:37.218Z,42.4
2018-01-23T06:08:39.113Z,42.2
2018-01-23T06:09:40.730Z,42.2
2018-01-23T06:10:42.050Z,42.2
2018-01-23T06:11:43.950Z,42.2
2018-01-23T06:12:45.542Z,42.2
2018-01-23T06:13:47.438Z,42.3
2018-01-23T06:14:49.033Z,42.1
2018-01-23T06:15:50.631Z,42.2
2018-01-23T06:16:51.971Z,42.2
2018-01-23T06:17:53.288Z,42.1
2018-01-23T06:18:54.608Z,42.1
2018-01-23T06:19:56.226Z,42.1
2018-01-23T06:20:57.844Z,42
2018-01-23T06:21:59.441Z,42.1
2018-01-23T06:23:00.782Z,42.2
2018-01-23T06:24:02.401Z,42.1
2018-01-23T06:25:04.296Z,42.1
2018-01-23T06:26:05.637Z,42.1
2018-01-23T06:27:06.957Z,42.2
2018-01-23T06:28:08.573Z,42.1
2018-01-23T06:29:09.892Z,42.3
2018-01-23T06:30:11.786Z,42.3
2018-01-23T06:31:13.403Z,42.1
2018-01-23T06:32:14.720Z,42.1
2018-01-23T06:33:16.617Z,42.1
2018-01-23T06:34:18.216Z,42.3
2018-01-23T06:35:19.561Z,42.1
2018-01-23T06:36:21.174Z,42.2
2018-01-23T06:37:22.214Z,42.1
2018-01-23T06:38:23.553Z,42.1
2018-01-23T06:39:24.590Z,42.1
2018-01-23T06:40:25.962Z,42.2
2018-01-23T06:41:27.858Z,42.1
2018-01-23T06:42:29.752Z,42.4
2018-01-23T06:43:31.428Z,42.3
2018-01-23T06:44:33.327Z,42.2
2018-01-23T06:45:35.221Z,42
2018-01-23T06:46:36.564Z,42.1
2018-01-23T06:47:37.602Z,42.1
2018-01-23T06:48:39.500Z,42.1
2018-01-23T06:49:40.823Z,42.1
2018-01-23T06:50:42.717Z,42.1
2018-01-23T06:51:44.313Z,42.2
2018-01-23T06:52:46.210Z,42.1
2018-01-23T06:53:47.549Z,42.2
2018-01-23T06:54:49.168Z,42.2
2018-01-23T06:55:50.491Z,42.3
2018-01-23T06:56:52.105Z,42.1
2018-01-23T06:57:53.423Z,42.3
2018-01-23T06:58:55.041Z,42.4
2018-01-23T06:59:56.940Z,42.2
2018-01-23T07:00:58.280Z,42.3
2018-01-23T07:01:59.896Z,42.4
2018-01-23T07:03:01.238Z,42.3
2018-01-23T07:04:02.555Z,42.4
2018-01-23T07:05:03.875Z,42.4
2018-01-23T07:06:05.806Z,42.1
2018-01-23T07:07:07.127Z,42.5
2018-01-23T07:08:08.745Z,42.2
2018-01-23T07:09:10.490Z,42.7
2018-01-23T07:10:12.090Z,42.7
2018-01-23T07:11:13.710Z,42.3
2018-01-23T07:12:15.674Z,42.4
2018-01-23T07:13:16.664Z,42.6
2018-01-23T07:14:18.560Z,42.4
2018-01-23T07:15:19.626Z,42.4
2018-01-23T07:16:20.950Z,42.4
2018-01-23T07:17:22.569Z,42.5
2018-01-23T07:18:24.186Z,42.9
2018-01-23T07:19:25.504Z,42.7
2018-01-23T07:20:27.403Z,42.6
2018-01-23T07:21:29.300Z,42.6
2018-01-23T07:22:31.200Z,42.7
2018-01-23T07:23:32.817Z,42.6
2018-01-23T07:24:34.416Z,42.5
2018-01-23T07:25:36.314Z,42.7
2018-01-23T07:26:38.211Z,42.9
2018-01-23T07:27:40.107Z,42.6
2018-01-23T07:28:41.178Z,42.9
2018-01-23T07:29:42.228Z,42.6
2018-01-23T07:30:44.127Z,42.9
2018-01-23T07:31:45.468Z,42.7
2018-01-23T07:32:47.090Z,42.7
2018-01-23T07:33:48.410Z,42.9
2018-01-23T07:34:50.126Z,43
2018-01-23T07:35:51.446Z,42.7
2018-01-23T07:36:52.495Z,42.7
2018-01-23T07:37:53.813Z,42.9
2018-01-23T07:38:55.134Z,42.8
2018-01-23T07:39:57.034Z,42.7
2018-01-23T07:40:58.097Z,42.7
2018-01-23T07:41:59.715Z,42.8
2018-01-23T07:43:01.609Z,42.7
2018-01-23T07:44:02.957Z,42.7
2018-01-23T07:45:04.398Z,43
2018-01-23T07:46:05.740Z,42.7
2018-01-23T07:47:07.059Z,42.8
2018-01-23T07:48:08.425Z,42.8
2018-01-23T07:49:10.142Z,42.7
2018-01-23T07:50:11.765Z,42.8
2018-01-23T07:51:13.386Z,42.9
2018-01-23T07:52:15.006Z,42.7
2018-01-23T07:53:16.384Z,42.7
2018-01-23T07:54:17.696Z,42.7
2018-01-23T07:55:19.037Z,42.8
2018-01-23T07:56:20.934Z,42.7
2018-01-23T07:57:22.535Z,42.7
2018-01-23T07:58:24.134Z,42.8
2018-01-23T07:59:25.476Z,42.6
2018-01-23T08:00:26.516Z,43.1
2018-01-23T08:01:28.142Z,42.7
2018-01-23T08:02:29.757Z,42.6
2018-01-23T08:03:31.380Z,42.5
2018-01-23T08:04:32.448Z,43
2018-01-23T08:05:34.065Z,42.8
2018-01-23T08:06:35.685Z,42.8
2018-01-23T08:07:37.009Z,43
2018-01-23T08:08:38.904Z,42.9
2018-01-23T08:09:39.947Z,42.9
2018-01-23T08:10:41.847Z,42.9
2018-01-23T08:11:43.466Z,42.9
2018-01-23T08:12:45.085Z,42.9
2018-01-23T08:13:46.982Z,42.8
2018-01-23T08:14:48.579Z,43
2018-01-23T08:15:49.906Z,42.5
2018-01-23T08:16:51.224Z,42.8
2018-01-23T08:17:52.847Z,42.8
2018-01-23T08:18:54.177Z,42.9
2018-01-23T08:19:55.625Z,42.9
2018-01-23T08:20:56.997Z,42.8
2018-01-23T08:21:58.338Z,42.8
2018-01-23T08:22:59.962Z,43
2018-01-23T08:24:01.890Z,43
2018-01-23T08:25:02.959Z,42.8
2018-01-23T08:26:04.016Z,42.5
2018-01-23T08:27:05.635Z,42.8
2018-01-23T08:28:06.957Z,42.8
2018-01-23T08:29:08.555Z,43
2018-01-23T08:30:09.880Z,43
2018-01-23T08:31:11.500Z,42.9
2018-01-23T08:32:12.820Z,43.2
2018-01-23T08:33:14.165Z,42.9
2018-01-23T08:34:15.784Z,43.3
2018-01-23T08:35:17.679Z,43.1
2018-01-23T08:36:19.581Z,42.7
2018-01-23T08:37:20.922Z,42.9
2018-01-23T08:38:22.243Z,43.2
2018-01-23T08:39:23.838Z,43.2
2018-01-23T08:40:24.881Z,43.2
2018-01-23T08:41:26.199Z,42.8
2018-01-23T08:42:27.821Z,42.9
2018-01-23T08:43:29.437Z,43.2
2018-01-23T08:44:31.036Z,43.4
2018-01-23T08:45:32.656Z,43.3
2018-01-23T08:46:34.359Z,43.4
2018-01-23T08:47:35.404Z,43.3
2018-01-23T08:48:36.749Z,43.7
2018-01-23T08:49:38.095Z,43.6
2018-01-23T08:50:39.781Z,43.6
2018-01-23T08:51:41.398Z,43.1
2018-01-23T08:52:42.745Z,43.6
2018-01-23T08:53:44.674Z,43.6
2018-01-23T08:54:46.302Z,43.8
2018-01-23T08:55:47.343Z,43.4
2018-01-23T08:56:49.245Z,43.4
2018-01-23T08:57:50.871Z,43.7
2018-01-23T08:58:52.490Z,43.5
2018-01-23T08:59:53.840Z,43.5
2018-01-23T09:00:55.186Z,43.5
2018-01-23T09:01:57.099Z,43.1
2018-01-23T09:02:58.444Z,43.8
2018-01-23T09:04:00.068Z,43.7
2018-01-23T09:05:01.688Z,43.3
2018-01-23T09:06:03.314Z,43.8
2018-01-23T09:07:04.659Z,43.5
2018-01-23T09:08:05.997Z,43.6
2018-01-23T09:09:06.775Z,43.7
2018-01-23T09:10:08.676Z,43.8
2018-01-23T09:11:10.022Z,43.4
2018-01-23T09:12:11.921Z,43.7
2018-01-23T09:13:13.823Z,43.6
2018-01-23T09:14:15.425Z,43.4
2018-01-23T09:15:17.054Z,43.6
2018-01-23T09:16:18.678Z,43.7
2018-01-23T09:17:20.391Z,43.7
2018-01-23T09:18:21.737Z,43.6
2018-01-23T09:19:22.512Z,43.5
2018-01-23T09:20:24.132Z,43.7
2018-01-23T09:21:25.754Z,43.6
2018-01-23T09:22:27.097Z,43.6
2018-01-23T09:23:28.996Z,43.6
2018-01-23T09:24:30.340Z,43.8
2018-01-23T09:25:32.241Z,43.7
2018-01-23T09:26:34.139Z,43.4
2018-01-23T09:27:35.761Z,43.8
2018-01-23T09:28:37.384Z,43.5
2018-01-23T09:29:39.279Z,43.7
2018-01-23T09:30:40.609Z,43.6
2018-01-23T09:31:42.211Z,43.6
2018-01-23T09:32:43.532Z,43.3
2018-01-23T09:33:44.857Z,43.4
2018-01-23T09:34:46.201Z,43.5
2018-01-23T09:35:47.819Z,43.7
2018-01-23T09:36:49.147Z,43.3
2018-01-23T09:37:50.750Z,43.4
2018-01-23T09:38:52.375Z,43.6
2018-01-23T09:39:53.997Z,43.5
2018-01-23T09:40:55.623Z,43.6
2018-01-23T09:41:57.246Z,43.6
2018-01-23T09:42:58.574Z,43.6
2018-01-23T09:44:00.197Z,43.6
2018-01-23T09:45:01.801Z,43.8
2018-01-23T09:46:03.712Z,43.4
2018-01-23T09:47:05.331Z,43.7
2018-01-23T09:48:06.677Z,43.5
2018-01-23T09:49:08.302Z,43.8
2018-01-23T09:50:09.630Z,43.8
2018-01-23T09:51:10.702Z,43.5
2018-01-23T09:52:12.028Z,44
2018-01-23T09:53:13.933Z,43.8
2018-01-23T09:54:15.555Z,44
2018-01-23T09:55:16.640Z,43.8
2018-01-23T09:56:18.382Z,43.8
2018-01-23T09:57:20.370Z,43.8
2018-01-23T09:58:21.739Z,43.7
2018-01-23T09:59:23.465Z,43.8
2018-01-23T10:00:25.098Z,43.8
2018-01-23T10:01:26.724Z,43.8
2018-01-23T10:02:28.347Z,43.7
2018-01-23T10:03:29.849Z,43.8
2018-01-23T10:04:31.187Z,44.1
2018-01-23T10:05:32.812Z,44
2018-01-23T10:06:34.435Z,43.8
2018-01-23T10:07:36.338Z,43.7
2018-01-23T10:08:37.430Z,44
2018-01-23T10:09:39.056Z,43.6
2018-01-23T10:10:41.027Z,43.8
2018-01-23T10:11:42.656Z,43.6
2018-01-23T10:12:43.429Z,43.6
2018-01-23T10:13:45.328Z,43.6
2018-01-23T10:14:46.948Z,43.9
2018-01-23T10:15:48.281Z,44
2018-01-23T10:16:49.906Z,43.7
2018-01-23T10:17:51.802Z,43.7
2018-01-23T10:18:53.430Z,43.9
2018-01-23T10:19:54.769Z,44
2018-01-23T10:20:56.118Z,43.6
2018-01-23T10:21:58.016Z,43.6
2018-01-23T10:22:59.334Z,43.8
2018-01-23T10:24:00.934Z,43.7
2018-01-23T10:25:02.262Z,43.8
2018-01-23T10:26:03.887Z,43.9
2018-01-23T10:27:05.790Z,43.8
2018-01-23T10:28:07.109Z,43.7
2018-01-23T10:29:09.008Z,43.7
2018-01-23T10:30:10.608Z,43.7
2018-01-23T10:31:12.506Z,43.8
2018-01-23T10:32:13.856Z,44
2018-01-23T10:33:15.477Z,43.9
2018-01-23T10:34:17.372Z,43.7
2018-01-23T10:35:19.026Z,43.8
2018-01-23T10:36:20.956Z,43.8
2018-01-23T10:37:22.864Z,44.1
2018-01-23T10:38:24.202Z,43.8
2018-01-23T10:39:25.526Z,44
2018-01-23T10:40:26.906Z,44.2
2018-01-23T10:41:28.231Z,43.9
2018-01-23T10:42:29.590Z,44.2
2018-01-23T10:43:31.226Z,44.3
2018-01-23T10:44:33.129Z,44
2018-01-23T10:45:34.757Z,44
2018-01-23T10:46:36.110Z,43.8
2018-01-23T10:47:37.436Z,44.1
2018-01-23T10:48:38.780Z,44
2018-01-23T10:49:40.384Z,44.3
2018-01-23T10:50:41.774Z,44.3
2018-01-23T10:51:43.095Z,44.3
2018-01-23T10:52:44.445Z,44.3
2018-01-23T10:53:46.348Z,44.3
2018-01-23T10:54:48.247Z,44.3
2018-01-23T10:55:49.879Z,44.7
2018-01-23T10:56:51.222Z,45
2018-01-23T10:57:52.568Z,44.9
2018-01-23T10:58:53.913Z,44.7
2018-01-23T10:59:55.233Z,45.2
2018-01-23T11:00:57.131Z,44.9
2018-01-23T11:01:58.178Z,44.6
2018-01-23T11:03:00.077Z,44.8
2018-01-23T11:04:01.981Z,44.7
2018-01-23T11:05:03.604Z,44.4
2018-01-23T11:06:04.648Z,44.7
2018-01-23T11:07:05.974Z,44.7
2018-01-23T11:08:07.600Z,44.6
2018-01-23T11:09:09.506Z,44.6
2018-01-23T11:10:10.847Z,44.8
2018-01-23T11:11:12.168Z,44.8
2018-01-23T11:12:14.068Z,44.6
2018-01-23T11:13:15.478Z,44.8
2018-01-23T11:14:16.882Z,44.7
2018-01-23T11:15:18.334Z,44.5
2018-01-23T11:16:19.687Z,44.3
2018-01-23T11:17:21.003Z,44.3
2018-01-23T11:18:22.630Z,44.3
2018-01-23T11:19:23.674Z,44.4
2018-01-23T11:20:24.716Z,44.5
2018-01-23T11:21:26.040Z,44.2
2018-01-23T11:22:27.671Z,44.4
2018-01-23T11:23:29.284Z,44.5
2018-01-23T11:24:30.617Z,44.3
2018-01-23T11:25:32.242Z,44.3
2018-01-23T11:26:33.587Z,44.5
2018-01-23T11:27:34.939Z,44.4
2018-01-23T11:28:36.599Z,44.2
2018-01-23T11:29:38.232Z,44.3
2018-01-23T11:30:39.354Z,44.5
2018-01-23T11:31:41.253Z,44.3
2018-01-23T11:32:42.890Z,44.3
2018-01-23T11:33:44.250Z,44.3
2018-01-23T11:34:45.868Z,44.5
2018-01-23T11:35:47.490Z,44.3
2018-01-23T11:36:49.386Z,44.4
2018-01-23T11:37:50.162Z,44.4
2018-01-23T11:38:51.230Z,44.4
2018-01-23T11:39:52.565Z,44.3
2018-01-23T11:40:54.241Z,44.3
2018-01-23T11:41:55.845Z,44.2
2018-01-23T11:42:57.466Z,44.2
2018-01-23T11:43:58.541Z,44.3
2018-01-23T11:44:59.886Z,44.5
2018-01-23T11:46:01.509Z,44.2
2018-01-23T11:47:03.185Z,44.4
2018-01-23T11:48:04.476Z,44.2
2018-01-23T11:49:05.522Z,44.4
2018-01-23T11:50:06.291Z,44.3
2018-01-23T11:51:08.239Z,44.3
2018-01-23T11:52:09.012Z,44.3
2018-01-23T11:53:10.352Z,44.2
2018-01-23T11:54:11.974Z,44.2
2018-01-23T11:55:13.597Z,44.5
2018-01-23T11:56:15.219Z,44.1
2018-01-23T11:57:16.892Z,44.4
2018-01-23T11:58:18.215Z,44.3
2018-01-23T11:59:19.561Z,44.2
2018-01-23T12:00:20.884Z,44.2
2018-01-23T12:01:22.482Z,44
2018-01-23T12:02:23.831Z,44.1
2018-01-23T12:03:25.454Z,44.3
2018-01-23T12:04:27.349Z,44.3
2018-01-23T12:05:28.696Z,44.1
2018-01-23T12:06:30.595Z,44.2
2018-01-23T12:07:31.942Z,44.3
2018-01-23T12:08:33.562Z,44.3
2018-01-23T12:09:35.182Z,44.3
2018-01-23T12:10:36.814Z,44.2
2018-01-23T12:11:38.436Z,44.3
2018-01-23T12:12:40.366Z,44.3
2018-01-23T12:13:41.684Z,44.2
2018-01-23T12:14:43.288Z,44
2018-01-23T12:15:44.909Z,44.2
2018-01-23T12:16:45.958Z,44.3
2018-01-23T12:17:47.277Z,44.3
2018-01-23T12:18:48.876Z,44.3
2018-01-23T12:19:50.208Z,44.3
2018-01-23T12:20:51.249Z,44.2
2018-01-23T12:21:53.196Z,44.1
2018-01-23T12:22:54.819Z,44.4
2018-01-23T12:23:56.141Z,44.3
2018-01-23T12:24:57.767Z,44.3
2018-01-23T12:25:59.386Z,44.2
2018-01-23T12:27:00.732Z,44.3
2018-01-23T12:28:02.054Z,44.3
2018-01-23T12:29:03.681Z,44.3
2018-01-23T12:30:05.306Z,44.4
2018-01-23T12:31:06.649Z,44.2
2018-01-23T12:32:07.696Z,44.3
2018-01-23T12:33:09.319Z,44.3
2018-01-23T12:34:10.941Z,44.1
2018-01-23T12:35:12.562Z,44.3
2018-01-23T12:36:14.185Z,44.1
2018-01-23T12:37:15.806Z,44.2
2018-01-23T12:38:17.412Z,44.2
2018-01-23T12:39:19.033Z,44.1
2018-01-23T12:40:20.375Z,44.1
2018-01-23T12:41:22.277Z,44.2
2018-01-23T12:42:24.232Z,44.3
2018-01-23T12:43:25.852Z,44
2018-01-23T12:44:27.176Z,44.1
2018-01-23T12:45:29.078Z,44.3
2018-01-23T12:46:30.121Z,44.2
2018-01-23T12:47:31.794Z,44.1
2018-01-23T12:48:33.693Z,43.9
2018-01-23T12:49:35.036Z,44.1
2018-01-23T12:50:36.647Z,44.2
2018-01-23T12:51:37.991Z,44.1
2018-01-23T12:52:39.588Z,44.3
2018-01-23T12:53:41.488Z,43.9
2018-01-23T12:54:42.833Z,44.1
2018-01-23T12:55:44.456Z,44
2018-01-23T12:56:46.079Z,44.2
2018-01-23T12:57:47.699Z,44.1
2018-01-23T12:58:49.320Z,44.1
2018-01-23T12:59:50.665Z,44.3
2018-01-23T13:00:51.990Z,43.9
2018-01-23T13:01:53.037Z,44
2018-01-23T13:02:54.410Z,44
2018-01-23T13:03:56.018Z,44.1
2018-01-23T13:04:57.915Z,43.9
2018-01-23T13:05:59.515Z,43.9
2018-01-23T13:07:00.558Z,44
2018-01-23T13:08:02.462Z,43.8
2018-01-23T13:09:04.084Z,43.9
2018-01-23T13:10:05.706Z,44.2
2018-01-23T13:11:07.328Z,44.2
2018-01-23T13:12:08.377Z,44.1
2018-01-23T13:13:09.997Z,44.3
2018-01-23T13:14:11.040Z,44.2
2018-01-23T13:15:12.936Z,44.3
2018-01-23T13:16:14.262Z,44.3
2018-01-23T13:17:15.882Z,44.2
2018-01-23T13:18:17.782Z,44.3
2018-01-23T13:19:19.102Z,44.2
2018-01-23T13:20:20.425Z,44.2
2018-01-23T13:21:22.322Z,44.1
2018-01-23T13:22:23.645Z,44.3
2018-01-23T13:23:24.964Z,44
2018-01-23T13:24:26.862Z,44.3
2018-01-23T13:25:28.479Z,43.9
2018-01-23T13:26:30.079Z,44.1
2018-01-23T13:27:30.848Z,43.9
2018-01-23T13:28:31.896Z,43.8
2018-01-23T13:29:33.233Z,43.9
2018-01-23T13:30:34.856Z,44
2018-01-23T13:31:36.788Z,44
2018-01-23T13:32:38.390Z,43.8
2018-01-23T13:33:39.739Z,44
2018-01-23T13:34:41.355Z,43.9
2018-01-23T13:35:43.250Z,43.9
2018-01-23T13:36:44.296Z,43.8
2018-01-23T13:37:45.363Z,43.8
2018-01-23T13:38:46.680Z,44
2018-01-23T13:39:48.277Z,44.1
2018-01-23T13:40:49.890Z,44
2018-01-23T13:41:51.786Z,44.1
2018-01-23T13:42:53.129Z,43.9